Hlavní strana
METAR-TAF:

METAR-TAF

Letiště :

Letiště Taškent

Taškent, Uzbekistán

zeměpisná šířka: 41-16N, zeměpisná délka: 069-16E, výška: 489 m

Aktuální stav počasí

Zpráva byla vytvořena před 26 minutami, v 22:00 UTC
Východní vítr 10 kt
Teplota 5°C
Vlhkost vzduchu 38%
Tlak 1022 hPa
Viditelnost 10 km a více
Žádná oblačnost pod 1500 m, nevyskytují se cumulonimby.

METAR: UTTT 132200Z 08010KT CAVOK 05/M08 Q1022 R08R/CLRD70 NOSIG

Čas: 03:26 (22:26 UTC)

Předpověď počasí

Zpráva byla vytvořena před 5 hodinami a 26 minutami, v 17:00 UTC
Předpověď platná od 13 v 18 UTC do 14 v 18 UTC
Východní vítr 8 kt
Viditelnost: 7000 m

TAF: UTTT 131700Z 1318/1418 08008KT 7000 NSC

Stav a předpovědi počasí z více než 4 000 letišť (zprávy METAR a TAF).

Červené a žluté tečky na mapě představují dostupné meteorologické stanice.

Když kurzor umístíte na tečku, zobrazí se název stanice.

Pak kliknutím zobrazíte stav a předpověď počasí.

Chcete-li změnit mapu, kliknutím na zelené tlačítko se znaménkem +mapu přiblížíte, kliknutím na zelené tlačítko se znaménkem – mapu oddálíte a kliknutím na zelené šipky přejdete na sousední mapy.


METAR-TAF: